createdAt,value
2018-06-18T00:05:55.374Z,2.4
2018-06-18T00:16:00.538Z,2.2
2018-06-18T00:26:06.326Z,2.1
2018-06-18T00:36:11.914Z,2
2018-06-18T00:46:13.585Z,1.6
2018-06-18T00:56:16.522Z,1.5
2018-06-18T01:06:17.217Z,2
2018-06-18T01:16:16.569Z,2.1
2018-06-18T01:26:19.404Z,1.6
2018-06-18T01:36:18.985Z,1.8
2018-06-18T01:46:24.073Z,1.5
2018-06-18T01:56:26.447Z,2.2
2018-06-18T02:06:25.994Z,1.9
2018-06-18T02:16:25.514Z,2.3
2018-06-18T02:26:30.028Z,2.6
2018-06-18T02:36:34.053Z,2.7
2018-06-18T02:46:40.926Z,2.4
2018-06-18T02:56:43.381Z,2.8
2018-06-18T03:06:49.659Z,2.7
2018-06-18T03:16:52.108Z,3
2018-06-18T03:26:54.745Z,2.6
2018-06-18T03:36:57.074Z,2.6
2018-06-18T03:46:56.691Z,3
2018-06-18T03:56:56.103Z,2.8
2018-06-18T04:06:55.678Z,4.8
2018-06-18T04:16:55.162Z,3.6
2018-06-18T04:26:54.815Z,5.2
2018-06-18T04:36:55.015Z,6
2018-06-18T04:46:54.451Z,5.9
2018-06-18T04:56:57.261Z,3.2
2018-06-18T05:06:56.764Z,5
2018-06-18T05:16:56.207Z,5
2018-06-18T05:26:56.102Z,6.2
2018-06-18T05:36:56.131Z,3.9
2018-06-18T05:46:55.750Z,5.3
2018-06-18T05:56:56.011Z,5
2018-06-18T06:06:55.672Z,4.3
2018-06-18T06:16:55.342Z,4.9
2018-06-18T06:26:59.290Z,5.2
2018-06-18T06:36:58.765Z,4.6
2018-06-18T06:46:59.742Z,3.5
2018-06-18T06:56:59.377Z,5.1
2018-06-18T07:06:59.062Z,3.6
2018-06-18T07:17:00.785Z,4.1
2018-06-18T07:27:04.205Z,2.9
2018-06-18T07:37:05.720Z,4
2018-06-18T07:47:06.042Z,3.3
2018-06-18T07:57:06.251Z,3.3
2018-06-18T08:07:13.421Z,3.2
2018-06-18T08:17:13.771Z,3.6
2018-06-18T08:27:18.538Z,3.2
2018-06-18T08:37:19.588Z,2.6
2018-06-18T08:47:20.105Z,2.6
2018-06-18T08:57:22.144Z,2.9
2018-06-18T09:07:26.072Z,2.9
2018-06-18T09:17:26.381Z,3.4
2018-06-18T09:27:26.062Z,3.9
2018-06-18T09:37:25.618Z,2.9
2018-06-18T09:47:28.938Z,2.8
2018-06-18T09:57:35.889Z,3.1
2018-06-18T10:07:38.150Z,3.9
2018-06-18T10:17:37.850Z,3.8
2018-06-18T10:27:40.510Z,3.3
2018-06-18T10:37:40.386Z,2.9
2018-06-18T10:47:42.438Z,3.3
2018-06-18T10:57:42.096Z,3.7
2018-06-18T11:07:41.610Z,3.1
2018-06-18T11:17:49.917Z,3
2018-06-18T11:27:51.745Z,3.3
2018-06-18T11:37:53.249Z,3.1
2018-06-18T11:47:56.668Z,2.9
2018-06-18T11:57:56.821Z,2.8
2018-06-18T12:08:01.641Z,3.3
2018-06-18T12:18:02.738Z,2.9
2018-06-18T12:28:02.389Z,2.4
2018-06-18T12:38:10.834Z,2.9
2018-06-18T12:48:25.277Z,2.9
2018-06-18T12:58:24.742Z,2.4
2018-06-18T13:08:26.759Z,4
2018-06-18T13:18:32.240Z,3.4
2018-06-18T13:28:40.577Z,3.1
2018-06-18T13:38:43.026Z,3.9
2018-06-18T13:48:47.042Z,3.5
2018-06-18T13:58:52.336Z,4.7
2018-06-18T14:08:55.979Z,3.8
2018-06-18T14:19:00.745Z,3.4
2018-06-18T14:29:03.455Z,3.8
2018-06-18T14:39:22.404Z,3.2
2018-06-18T14:49:31.298Z,3.4
2018-06-18T14:59:34.497Z,4.7
2018-06-18T15:09:39.633Z,2.9
2018-06-18T15:19:47.068Z,6.2
2018-06-18T15:29:51.550Z,3.9
2018-06-18T15:39:55.142Z,3.7
2018-06-18T15:49:58.188Z,3.5
2018-06-18T16:00:02.377Z,3.7
2018-06-18T16:10:07.436Z,2.6
2018-06-18T16:20:12.768Z,3.5
2018-06-18T16:30:14.712Z,2.8
2018-06-18T16:40:18.165Z,3.2
2018-06-18T16:50:22.855Z,3.6
2018-06-18T17:00:28.011Z,3.5
2018-06-18T17:10:30.587Z,3.5
2018-06-18T17:20:32.642Z,4.4
2018-06-18T17:30:35.164Z,3.9
2018-06-18T17:40:38.015Z,4.3
2018-06-18T17:50:40.941Z,3.3
2018-06-18T18:00:42.944Z,3.3
2018-06-18T18:10:45.559Z,4.2
2018-06-18T18:20:48.778Z,4
2018-06-18T18:30:52.100Z,4.4
2018-06-18T18:40:59.441Z,3.8
2018-06-18T19:29:39.871Z,3.9
